This is the latest recevied weather packets stored in our database for station/object KJ4YLO. If no packets are shown the sender has not sent any weather packets the latest 10 day(s).
| Time | Temp. | Humidity | Pressure | Rain* | Wind** | Luminosity | Snow |
|---|---|---|---|---|---|---|---|
| 1778104994 | 21.11° C | 81% | 1013.5 hPa | 0 mm | - | 13 W/m² | - |
| 1778104691 | 21.11° C | 81% | 1013.5 hPa | 0 mm | - | 10 W/m² | - |
| 1778104387 | 21.11° C | 80% | 1013.8 hPa | 0 mm | - | 6 W/m² | - |
| 1778104083 | 21.11° C | 80% | 1013.8 hPa | 0 mm | - | 3 W/m² | - |
| 1778103780 | 21.67° C | 81% | 1013.8 hPa | 0 mm | - | 6 W/m² | - |
| 1778103478 | 21.67° C | 80% | 1013.5 hPa | 0 mm | - | 19 W/m² | - |
| 1778103175 | 21.67° C | 80% | 1013.5 hPa | 0 mm | - | 44 W/m² | - |
| 1778102872 | 21.67° C | 79% | 1013.5 hPa | 0 mm | - | 50 W/m² | - |
| 1778102568 | 21.67° C | 78% | 1013.5 hPa | 0 mm | - | 44 W/m² | - |
| 1778102263 | 21.67° C | 78% | 1013.5 hPa | 0 mm | - | 33 W/m² | - |
| 1778101960 | 21.67° C | 77% | 1013.8 hPa | 0 mm | - | 26 W/m² | - |
| 1778101657 | 21.67° C | 77% | 1013.8 hPa | 0 mm | - | 18 W/m² | - |
| 1778101354 | 21.67° C | 76% | 1014.1 hPa | 0 mm | - | 21 W/m² | - |
| 1778101050 | 21.67° C | 77% | 1013.8 hPa | 0 mm | - | 42 W/m² | - |
| 1778100746 | 22.22° C | 76% | 1014.1 hPa | 0 mm | - | 44 W/m² | - |
| 1778100438 | 22.78° C | 75% | 1014.1 hPa | 0 mm | - | 45 W/m² | - |
| 1778100135 | 22.78° C | 74% | 1014.5 hPa | 0 mm | - | 40 W/m² | - |
| 1778099833 | 22.22° C | 75% | 1014.1 hPa | 0 mm | - | 50 W/m² | - |
| 1778099530 | 22.22° C | 75% | 1014.5 hPa | 0 mm | - | 59 W/m² | - |
| 1778099228 | 22.22° C | 74% | 1014.8 hPa | 0 mm | - | 58 W/m² | - |
| 1778098924 | 22.22° C | 73% | 1014.5 hPa | 0 mm | - | 84 W/m² | - |
| 1778098621 | 22.78° C | 74% | 1014.5 hPa | 0 mm | - | 75 W/m² | - |
| 1778098317 | 22.22° C | 73% | 1014.5 hPa | 0 mm | - | 90 W/m² | - |
| 1778098014 | 22.22° C | 73% | 1014.8 hPa | 0 mm | - | 62 W/m² | - |
| 1778097711 | 22.78° C | 74% | 1014.8 hPa | 0 mm | - | 65 W/m² | - |
* Rain latest hour (hover to see other rain measurements)
** Current wind speed in m/s (hover to see current wind gust speed)